Boca Raton, FL

6:31 PM EDT on September 01, 2015 (GMT -0400)
Terra Tranquila | | Change Station
CLOSE
Current Station
Personal Weather Station
Location: Boca Raton, FL
Elevation: 30 ft
Nearby Weather Stations

Elev 30 ft 26.34 °N, 80.15 °W | Updated 58 seconds ago

Clear
Clear
88.3 °F
Feels Like 97 °F
N
0.0
Wind Variable Wind from SSW
Gusts 4.2 mph

Today
High -- | Low -- °F
--% Chance of Precip.
Yesterday
High -- | Low -- °F
Precip. -- in
7:00 AM 7:40 PM
Waning Gibbous, 86% visible
Pressure 30.05 in
Visibility 10.0 miles
Clouds Clear
Heat Index 97 °F
Dew Point 74 °F
Humidity 62%
Rainfall 0.00 in
Snow Depth Not available.
UV 2 out of 12
Pollen 4.80 out of 12
Air Quality Not available.
Flu Activity Not available.
METAR KPMP 012153Z 11008KT 10SM CLR 31/24 A3004 RMK AO2 LTG DSNT W SLP174 T03110239
Pressure 30.05 in
Visibility 10.0 miles
Clouds Clear
Heat Index 97 °F
Dew Point 74 °F
Humidity 62%
Rainfall 0.00 in
Snow Depth Not available.
UV 2 out of 12
Pollen 4.80 out of 12
Air Quality Not available.
Flu Activity Not available.
METAR KPMP 012153Z 11008KT 10SM CLR 31/24 A3004 RMK AO2 LTG DSNT W SLP174 T03110239
Nowcast | as of 2:26 PM EDT on September 1, 2015

Scattered showers and thunderstorms will continue to develop through this afternoon. Gusty winds to 40 mph, frequent cloud to ground lightning and heavy downpours are possible with the strongest storms. Most activity is expected to move to the north northwest around 10 mph. Potentially, a half inch of rain could fall in a very short period of time.

×

10-Day Weather Forecast

×

Almanac

Astronomy

Sep. 01, 2015 Rise Set
Actual Time
Civil Twilight
Nautical Twilight
Astronomical Twilight
Moon
Length of Visible Light
Length of Day
Tomorrow will be .
, % of the Moon is Illuminated

Today's Extremes

State Highs State Lows

Community

WunderPhotos

Upload Photos

1,851,634 photos uploaded!

WunderBlogs® & News

Nearby

Air Quality

  Air Quality AQ Index Pollutant
Not available.

Snow Depth

Station Depth Elevation

Earthquake Activity

City Distance Mag. Time & Date
Minimum magnitude displayed is 2.5.

Coastal Water Temperatures

Place Temperature

Stations

Nearby Weather Stations

Station Location Temp. Windchill Dew Point Humidity Wind Precip. Elev Updated Type